Airfield :
LOGIN :

Register | Disclaimer

   EN    FR    IT 

 










Legend :    VFR   Marginal VFR   IFR   Intensive IFR   Very Intensive IFR
Visi :
Ceiling :
>= 8 km
>= 3000ft
5 to 8 km
1000 to 3000 ft
1500m to 5 km
500 to 1000 ft
800 to 1500m
200 to 500 ft
< 800m
< 200 ft
Symbols :   Thunderstorms  Fog  Heavy snow  Heavy precipitations  Wind > 20 kt
SIGMETs :     Misc.  Thunderstorms  Icing  Turbulence  Mountain Waves  Volcanic Ashes






- Airport Elevation : 37 ft


EHVL - Vlieland Heliport

CURRENT METAR :
  • 260206Z AUTO 16019KT 5000 BR OVC003 03/03 Q1016 YLO

EXPIRED METARs :
  • 260155Z AUTO 16017KT 5000 BR OVC003 03/03 Q1016 YLO
  • 260135Z AUTO 16016KT 6000 BR OVC005 04/03 Q1016 YLO
  • 260125Z AUTO 17015KT 8000 BR FEW005 OVC006 04/03 Q1016 YLO
  • 260117Z AUTO 17015KT 3600 BR FEW002 SCT005 OVC007 04/03 Q1016 YLO
  • 260106Z AUTO 18015KT 3100 BR FEW001 BKN007 OVC008 04/03 Q1016 YLO
  • 260103Z AUTO 18015KT 3000 BR SCT001 BKN004 OVC009 04/03 Q1016 RED
  • 260042Z AUTO 19013KT 3400 BR SCT002 BKN004 OVC010 04/03 Q1016 AMB
  • 260025Z AUTO 19014KT 3400 BR FEW003 OVC004 04/03 Q1017 YLO
  • 260009Z AUTO 19015KT 3400 BR SCT002 SCT003 OVC010 04/03 Q1017 AMB
  • 252355Z AUTO 19014KT 3500 BR OVC010 04/03 Q1017 YLO
  • 252344Z AUTO 19016KT 3500 BR OVC011 04/03 Q1017 YLO
  • 252337Z AUTO 19016KT 3800 BR FEW004 OVC012 04/03 Q1017 GRN
  • 252325Z AUTO 19017KT 3500 BR SCT003 BKN005 OVC012 04/03 Q1017 YLO
  • 252309Z AUTO 19016KT 3500 BR FEW002 BKN011 OVC013 04/03 Q1017 YLO

Expired Forecast.



MET'MAP, your aeronautical weather chart ! - Copyright ORBIFLY December 2007 - Disclaimer

ORBIFLY MET'MAP TEAM :

Programming & Development : Alexandra Zaïnal
Concept & original design : Baudouin d'Aumeries
Assistance for programming : Marc-Olivier Méhu
Technical & hardware support : Manuel Goepfert

Contact : metmap@orbifly.com




SOURCES & CREDITS :

   NOAA